sensor_id;sensor_type;location;lat;lon;timestamp;temperature;humidity
76345;DHT22;65160;50.504;3.666;2023-01-10T00:01:56;4.42;87.60
76345;DHT22;65160;50.504;3.666;2023-01-10T00:04:22;4.42;87.51
76345;DHT22;65160;50.504;3.666;2023-01-10T00:06:50;4.37;87.72
76345;DHT22;65160;50.504;3.666;2023-01-10T00:09:16;4.33;87.77
76345;DHT22;65160;50.504;3.666;2023-01-10T00:11:42;4.31;88.21
76345;DHT22;65160;50.504;3.666;2023-01-10T00:14:27;4.24;88.18
76345;DHT22;65160;50.504;3.666;2023-01-10T00:16:53;4.22;88.30
76345;DHT22;65160;50.504;3.666;2023-01-10T00:19:19;4.24;88.22
76345;DHT22;65160;50.504;3.666;2023-01-10T00:21:44;4.22;88.53
76345;DHT22;65160;50.504;3.666;2023-01-10T00:24:10;4.24;88.35
76345;DHT22;65160;50.504;3.666;2023-01-10T00:26:54;4.27;88.63
76345;DHT22;65160;50.504;3.666;2023-01-10T00:29:21;4.27;88.00
76345;DHT22;65160;50.504;3.666;2023-01-10T00:31:48;4.22;88.45
76345;DHT22;65160;50.504;3.666;2023-01-10T00:34:15;4.14;88.68
76345;DHT22;65160;50.504;3.666;2023-01-10T00:36:40;4.07;88.83
76345;DHT22;65160;50.504;3.666;2023-01-10T00:39:07;4.11;88.68
76345;DHT22;65160;50.504;3.666;2023-01-10T00:41:34;4.10;88.66
76345;DHT22;65160;50.504;3.666;2023-01-10T00:44:18;4.04;88.55
76345;DHT22;65160;50.504;3.666;2023-01-10T00:46:43;3.98;89.03
76345;DHT22;65160;50.504;3.666;2023-01-10T00:49:09;3.93;89.38
76345;DHT22;65160;50.504;3.666;2023-01-10T00:51:38;3.91;89.54
76345;DHT22;65160;50.504;3.666;2023-01-10T00:54:03;3.90;89.82
76345;DHT22;65160;50.504;3.666;2023-01-10T00:56:29;3.87;89.51
76345;DHT22;65160;50.504;3.666;2023-01-10T00:58:54;3.91;89.88
76345;DHT22;65160;50.504;3.666;2023-01-10T01:01:20;3.80;90.63
76345;DHT22;65160;50.504;3.666;2023-01-10T01:03:45;3.82;90.39
76345;DHT22;65160;50.504;3.666;2023-01-10T01:06:11;3.83;90.30
76345;DHT22;65160;50.504;3.666;2023-01-10T01:08:37;3.87;90.09
76345;DHT22;65160;50.504;3.666;2023-01-10T01:11:02;3.93;89.76
76345;DHT22;65160;50.504;3.666;2023-01-10T01:13:28;3.96;90.10
76345;DHT22;65160;50.504;3.666;2023-01-10T01:15:57;4.00;89.91
76345;DHT22;65160;50.504;3.666;2023-01-10T01:18:23;4.03;89.57
76345;DHT22;65160;50.504;3.666;2023-01-10T01:20:53;3.98;89.59
76345;DHT22;65160;50.504;3.666;2023-01-10T01:23:19;3.96;89.73
76345;DHT22;65160;50.504;3.666;2023-01-10T01:25:45;3.94;90.09
76345;DHT22;65160;50.504;3.666;2023-01-10T01:28:13;3.90;90.10
76345;DHT22;65160;50.504;3.666;2023-01-10T01:30:39;3.90;89.88
76345;DHT22;65160;50.504;3.666;2023-01-10T01:33:05;3.93;89.80
76345;DHT22;65160;50.504;3.666;2023-01-10T01:35:30;4.00;89.56
76345;DHT22;65160;50.504;3.666;2023-01-10T01:37:57;3.91;89.58
76345;DHT22;65160;50.504;3.666;2023-01-10T01:40:23;3.86;90.02
76345;DHT22;65160;50.504;3.666;2023-01-10T01:42:49;3.73;90.62
76345;DHT22;65160;50.504;3.666;2023-01-10T01:52:39;3.56;91.56
76345;DHT22;65160;50.504;3.666;2023-01-10T01:55:05;3.48;91.90
76345;DHT22;65160;50.504;3.666;2023-01-10T01:57:32;3.42;91.99
76345;DHT22;65160;50.504;3.666;2023-01-10T01:59:59;3.38;92.02
76345;DHT22;65160;50.504;3.666;2023-01-10T02:02:29;3.38;91.94
76345;DHT22;65160;50.504;3.666;2023-01-10T02:05:01;3.41;91.75
76345;DHT22;65160;50.504;3.666;2023-01-10T02:07:32;3.35;91.88
76345;DHT22;65160;50.504;3.666;2023-01-10T02:12:29;3.27;92.32
76345;DHT22;65160;50.504;3.666;2023-01-10T02:14:55;3.30;92.35
76345;DHT22;65160;50.504;3.666;2023-01-10T02:17:21;3.23;92.48
76345;DHT22;65160;50.504;3.666;2023-01-10T02:31:28;3.27;92.28
76345;DHT22;65160;50.504;3.666;2023-01-10T02:34:07;3.31;92.49
76345;DHT22;65160;50.504;3.666;2023-01-10T02:36:57;3.31;92.50
76345;DHT22;65160;50.504;3.666;2023-01-10T02:39:38;3.32;92.31
76345;DHT22;65160;50.504;3.666;2023-01-10T02:42:14;3.36;92.23
76345;DHT22;65160;50.504;3.666;2023-01-10T02:45:13;3.41;92.38
76345;DHT22;65160;50.504;3.666;2023-01-10T02:47:42;3.34;92.54
76345;DHT22;65160;50.504;3.666;2023-01-10T02:50:30;3.27;92.62
76345;DHT22;65160;50.504;3.666;2023-01-10T02:53:17;3.14;92.75
76345;DHT22;65160;50.504;3.666;2023-01-10T03:09:51;3.15;93.08
76345;DHT22;65160;50.504;3.666;2023-01-10T03:14:53;3.05;93.59
76345;DHT22;65160;50.504;3.666;2023-01-10T03:17:20;3.13;93.55
76345;DHT22;65160;50.504;3.666;2023-01-10T03:19:50;3.15;93.17
76345;DHT22;65160;50.504;3.666;2023-01-10T03:22:16;3.14;93.10
76345;DHT22;65160;50.504;3.666;2023-01-10T03:24:46;3.17;92.92
76345;DHT22;65160;50.504;3.666;2023-01-10T03:32:32;3.21;92.88
76345;DHT22;65160;50.504;3.666;2023-01-10T03:34:59;3.17;92.75
76345;DHT22;65160;50.504;3.666;2023-01-10T03:37:33;3.13;92.80
76345;DHT22;65160;50.504;3.666;2023-01-10T03:40:22;3.05;92.80
76345;DHT22;65160;50.504;3.666;2023-01-10T03:43:13;3.01;92.94
76345;DHT22;65160;50.504;3.666;2023-01-10T03:46:03;3.00;93.19
76345;DHT22;65160;50.504;3.666;2023-01-10T03:48:32;2.90;93.39
76345;DHT22;65160;50.504;3.666;2023-01-10T03:51:02;2.96;93.62
76345;DHT22;65160;50.504;3.666;2023-01-10T03:53:30;3.00;93.57
76345;DHT22;65160;50.504;3.666;2023-01-10T03:55:56;3.04;93.42
76345;DHT22;65160;50.504;3.666;2023-01-10T03:58:21;3.00;93.52
76345;DHT22;65160;50.504;3.666;2023-01-10T04:00:47;2.93;93.30
76345;DHT22;65160;50.504;3.666;2023-01-10T04:03:13;2.87;93.54
76345;DHT22;65160;50.504;3.666;2023-01-10T04:05:41;2.96;93.45
76345;DHT22;65160;50.504;3.666;2023-01-10T04:08:07;2.94;93.40
76345;DHT22;65160;50.504;3.666;2023-01-10T04:10:32;2.96;93.24
76345;DHT22;65160;50.504;3.666;2023-01-10T04:13:01;2.97;93.21
76345;DHT22;65160;50.504;3.666;2023-01-10T04:15:27;3.04;93.07
76345;DHT22;65160;50.504;3.666;2023-01-10T04:17:53;3.07;92.96
76345;DHT22;65160;50.504;3.666;2023-01-10T04:20:18;3.04;92.97
76345;DHT22;65160;50.504;3.666;2023-01-10T04:22:44;3.08;92.88
76345;DHT22;65160;50.504;3.666;2023-01-10T04:25:10;3.10;92.84
76345;DHT22;65160;50.504;3.666;2023-01-10T04:27:36;3.13;92.73
76345;DHT22;65160;50.504;3.666;2023-01-10T04:30:01;3.08;92.69
76345;DHT22;65160;50.504;3.666;2023-01-10T04:32:27;3.03;92.93
76345;DHT22;65160;50.504;3.666;2023-01-10T04:34:52;3.08;92.91
76345;DHT22;65160;50.504;3.666;2023-01-10T04:37:18;3.05;92.81
76345;DHT22;65160;50.504;3.666;2023-01-10T04:39:44;3.08;92.77
76345;DHT22;65160;50.504;3.666;2023-01-10T04:42:10;3.10;92.64
76345;DHT22;65160;50.504;3.666;2023-01-10T04:44:35;3.08;92.53
76345;DHT22;65160;50.504;3.666;2023-01-10T04:47:01;3.07;92.64
76345;DHT22;65160;50.504;3.666;2023-01-10T04:49:27;3.10;92.62
76345;DHT22;65160;50.504;3.666;2023-01-10T04:51:52;3.08;92.50
76345;DHT22;65160;50.504;3.666;2023-01-10T04:54:21;3.10;92.43
76345;DHT22;65160;50.504;3.666;2023-01-10T04:56:47;3.13;92.35
76345;DHT22;65160;50.504;3.666;2023-01-10T04:59:13;3.11;92.34
76345;DHT22;65160;50.504;3.666;2023-01-10T05:01:38;3.04;92.41
76345;DHT22;65160;50.504;3.666;2023-01-10T05:04:05;3.08;92.45
76345;DHT22;65160;50.504;3.666;2023-01-10T05:06:31;3.07;92.25
76345;DHT22;65160;50.504;3.666;2023-01-10T05:08:57;3.08;92.48
76345;DHT22;65160;50.504;3.666;2023-01-10T05:11:22;3.07;92.48
76345;DHT22;65160;50.504;3.666;2023-01-10T05:13:48;3.04;92.57
76345;DHT22;65160;50.504;3.666;2023-01-10T05:16:14;3.07;92.50
76345;DHT22;65160;50.504;3.666;2023-01-10T05:18:40;3.07;92.47
76345;DHT22;65160;50.504;3.666;2023-01-10T05:21:08;3.10;92.44
76345;DHT22;65160;50.504;3.666;2023-01-10T05:23:34;3.04;92.45
76345;DHT22;65160;50.504;3.666;2023-01-10T05:26:09;3.04;92.52
76345;DHT22;65160;50.504;3.666;2023-01-10T05:28:35;2.96;92.81
76345;DHT22;65160;50.504;3.666;2023-01-10T05:31:00;2.90;92.97
76345;DHT22;65160;50.504;3.666;2023-01-10T05:33:26;2.85;93.10
76345;DHT22;65160;50.504;3.666;2023-01-10T05:35:52;2.86;93.14
76345;DHT22;65160;50.504;3.666;2023-01-10T05:38:17;2.85;93.04
76345;DHT22;65160;50.504;3.666;2023-01-10T05:40:43;2.85;93.14
76345;DHT22;65160;50.504;3.666;2023-01-10T05:43:08;2.86;93.12
76345;DHT22;65160;50.504;3.666;2023-01-10T05:45:36;2.85;93.35
76345;DHT22;65160;50.504;3.666;2023-01-10T05:48:02;2.80;93.19
76345;DHT22;65160;50.504;3.666;2023-01-10T05:50:27;2.83;93.38
76345;DHT22;65160;50.504;3.666;2023-01-10T05:52:53;2.82;93.36
76345;DHT22;65160;50.504;3.666;2023-01-10T05:55:21;2.85;93.35
76345;DHT22;65160;50.504;3.666;2023-01-10T05:57:46;2.90;93.31
76345;DHT22;65160;50.504;3.666;2023-01-10T06:00:12;2.93;93.25
76345;DHT22;65160;50.504;3.666;2023-01-10T06:02:38;3.01;93.03
76345;DHT22;65160;50.504;3.666;2023-01-10T06:05:04;2.99;92.84
76345;DHT22;65160;50.504;3.666;2023-01-10T06:07:30;2.96;93.01
76345;DHT22;65160;50.504;3.666;2023-01-10T06:09:56;2.97;92.99
76345;DHT22;65160;50.504;3.666;2023-01-10T06:12:22;2.87;93.26
76345;DHT22;65160;50.504;3.666;2023-01-10T06:14:47;2.85;93.39
76345;DHT22;65160;50.504;3.666;2023-01-10T06:17:13;2.92;93.26
76345;DHT22;65160;50.504;3.666;2023-01-10T06:19:38;2.85;93.27
76345;DHT22;65160;50.504;3.666;2023-01-10T06:22:04;2.89;93.28
76345;DHT22;65160;50.504;3.666;2023-01-10T06:24:30;2.87;93.25
76345;DHT22;65160;50.504;3.666;2023-01-10T06:26:55;2.80;93.42
76345;DHT22;65160;50.504;3.666;2023-01-10T06:29:21;2.82;93.55
76345;DHT22;65160;50.504;3.666;2023-01-10T06:31:46;2.86;93.46
76345;DHT22;65160;50.504;3.666;2023-01-10T06:34:11;2.87;93.53
76345;DHT22;65160;50.504;3.666;2023-01-10T06:36:37;2.86;93.49
76345;DHT22;65160;50.504;3.666;2023-01-10T06:39:02;2.85;93.50
76345;DHT22;65160;50.504;3.666;2023-01-10T06:41:28;2.83;93.53
76345;DHT22;65160;50.504;3.666;2023-01-10T06:43:53;2.80;93.70
76345;DHT22;65160;50.504;3.666;2023-01-10T06:46:19;2.79;93.82
76345;DHT22;65160;50.504;3.666;2023-01-10T06:48:45;2.77;93.91
76345;DHT22;65160;50.504;3.666;2023-01-10T06:51:12;2.79;93.91
76345;DHT22;65160;50.504;3.666;2023-01-10T06:53:38;2.85;93.87
76345;DHT22;65160;50.504;3.666;2023-01-10T06:56:04;2.90;93.71
76345;DHT22;65160;50.504;3.666;2023-01-10T06:58:31;2.96;93.50
76345;DHT22;65160;50.504;3.666;2023-01-10T07:00:57;3.00;93.35
76345;DHT22;65160;50.504;3.666;2023-01-10T07:03:22;2.97;93.41
76345;DHT22;65160;50.504;3.666;2023-01-10T07:05:48;2.94;93.55
76345;DHT22;65160;50.504;3.666;2023-01-10T07:08:13;2.94;93.59
76345;DHT22;65160;50.504;3.666;2023-01-10T07:10:40;2.92;93.66
76345;DHT22;65160;50.504;3.666;2023-01-10T07:13:06;2.97;93.51
76345;DHT22;65160;50.504;3.666;2023-01-10T07:15:32;2.92;93.54
76345;DHT22;65160;50.504;3.666;2023-01-10T07:17:58;2.96;93.60
76345;DHT22;65160;50.504;3.666;2023-01-10T07:20:23;2.99;93.55
76345;DHT22;65160;50.504;3.666;2023-01-10T07:22:56;3.04;93.48
76345;DHT22;65160;50.504;3.666;2023-01-10T07:25:24;3.04;93.38
76345;DHT22;65160;50.504;3.666;2023-01-10T07:27:50;3.04;93.30
76345;DHT22;65160;50.504;3.666;2023-01-10T07:30:16;3.03;93.40
76345;DHT22;65160;50.504;3.666;2023-01-10T07:32:41;3.08;93.23
76345;DHT22;65160;50.504;3.666;2023-01-10T07:35:07;3.11;93.17
76345;DHT22;65160;50.504;3.666;2023-01-10T07:37:33;3.05;93.07
76345;DHT22;65160;50.504;3.666;2023-01-10T07:39:58;3.08;93.10
76345;DHT22;65160;50.504;3.666;2023-01-10T07:42:23;3.10;93.04
76345;DHT22;65160;50.504;3.666;2023-01-10T07:44:49;3.11;93.05
76345;DHT22;65160;50.504;3.666;2023-01-10T07:47:14;3.17;92.85
76345;DHT22;65160;50.504;3.666;2023-01-10T07:49:40;3.18;92.76
76345;DHT22;65160;50.504;3.666;2023-01-10T07:52:05;3.15;92.92
76345;DHT22;65160;50.504;3.666;2023-01-10T07:54:34;3.17;92.81
76345;DHT22;65160;50.504;3.666;2023-01-10T07:57:00;3.23;92.72
76345;DHT22;65160;50.504;3.666;2023-01-10T07:59:25;3.23;92.68
76345;DHT22;65160;50.504;3.666;2023-01-10T08:01:51;3.27;92.60
76345;DHT22;65160;50.504;3.666;2023-01-10T08:04:18;3.28;92.56
76345;DHT22;65160;50.504;3.666;2023-01-10T08:06:43;3.34;92.50
76345;DHT22;65160;50.504;3.666;2023-01-10T08:09:09;3.35;92.51
76345;DHT22;65160;50.504;3.666;2023-01-10T08:11:34;3.39;92.38
76345;DHT22;65160;50.504;3.666;2023-01-10T08:14:00;3.48;92.19
76345;DHT22;65160;50.504;3.666;2023-01-10T08:16:25;3.46;92.23
76345;DHT22;65160;50.504;3.666;2023-01-10T08:18:50;3.49;92.10
76345;DHT22;65160;50.504;3.666;2023-01-10T08:21:16;3.55;92.12
76345;DHT22;65160;50.504;3.666;2023-01-10T08:23:41;3.55;92.01
76345;DHT22;65160;50.504;3.666;2023-01-10T08:26:07;3.60;92.07
76345;DHT22;65160;50.504;3.666;2023-01-10T08:28:33;3.63;91.83
76345;DHT22;65160;50.504;3.666;2023-01-10T08:31:04;3.68;91.78
76345;DHT22;65160;50.504;3.666;2023-01-10T08:33:29;3.69;91.84
76345;DHT22;65160;50.504;3.666;2023-01-10T08:35:55;3.72;91.92
76345;DHT22;65160;50.504;3.666;2023-01-10T08:38:20;3.79;91.88
76345;DHT22;65160;50.504;3.666;2023-01-10T08:40:45;3.80;91.96
76345;DHT22;65160;50.504;3.666;2023-01-10T08:43:11;3.87;91.76
76345;DHT22;65160;50.504;3.666;2023-01-10T08:45:38;3.91;91.66
76345;DHT22;65160;50.504;3.666;2023-01-10T08:48:04;4.03;91.35
76345;DHT22;65160;50.504;3.666;2023-01-10T08:50:30;4.00;91.55
76345;DHT22;65160;50.504;3.666;2023-01-10T08:52:59;4.04;91.32
76345;DHT22;65160;50.504;3.666;2023-01-10T08:55:25;4.08;91.44
76345;DHT22;65160;50.504;3.666;2023-01-10T08:57:51;4.13;91.42
76345;DHT22;65160;50.504;3.666;2023-01-10T09:00:17;4.16;91.43
76345;DHT22;65160;50.504;3.666;2023-01-10T09:02:43;4.20;91.26
76345;DHT22;65160;50.504;3.666;2023-01-10T09:05:09;4.27;91.17
76345;DHT22;65160;50.504;3.666;2023-01-10T09:07:35;4.33;91.08
76345;DHT22;65160;50.504;3.666;2023-01-10T09:10:02;4.33;91.01
76345;DHT22;65160;50.504;3.666;2023-01-10T09:12:28;4.44;91.04
76345;DHT22;65160;50.504;3.666;2023-01-10T09:15:12;4.46;90.61
76345;DHT22;65160;50.504;3.666;2023-01-10T09:17:38;4.55;91.04
76345;DHT22;65160;50.504;3.666;2023-01-10T09:20:04;4.63;90.76
76345;DHT22;65160;50.504;3.666;2023-01-10T09:22:34;4.71;90.35
76345;DHT22;65160;50.504;3.666;2023-01-10T09:25:00;4.75;90.42
76345;DHT22;65160;50.504;3.666;2023-01-10T09:27:26;4.82;90.07
76345;DHT22;65160;50.504;3.666;2023-01-10T09:29:51;4.86;90.02
76345;DHT22;65160;50.504;3.666;2023-01-10T09:32:17;4.93;90.21
76345;DHT22;65160;50.504;3.666;2023-01-10T09:34:42;5.00;90.17
76345;DHT22;65160;50.504;3.666;2023-01-10T09:37:07;5.01;89.61
76345;DHT22;65160;50.504;3.666;2023-01-10T09:39:33;5.01;89.88
76345;DHT22;65160;50.504;3.666;2023-01-10T09:44:45;5.16;89.30
76345;DHT22;65160;50.504;3.666;2023-01-10T09:53:19;5.30;88.40
76345;DHT22;65160;50.504;3.666;2023-01-10T09:55:45;5.38;88.73
76345;DHT22;65160;50.504;3.666;2023-01-10T09:58:15;5.41;88.38
76345;DHT22;65160;50.504;3.666;2023-01-10T10:00:58;5.52;88.41
76345;DHT22;65160;50.504;3.666;2023-01-10T10:03:31;5.60;88.35
76345;DHT22;65160;50.504;3.666;2023-01-10T10:05:59;5.66;87.88
76345;DHT22;65160;50.504;3.666;2023-01-10T10:08:26;5.67;87.70
76345;DHT22;65160;50.504;3.666;2023-01-10T10:19:51;5.83;88.09
76345;DHT22;65160;50.504;3.666;2023-01-10T10:25:17;5.80;87.42
76345;DHT22;65160;50.504;3.666;2023-01-10T10:30:53;5.85;87.28
76345;DHT22;65160;50.504;3.666;2023-01-10T10:33:53;5.90;87.32
76345;DHT22;65160;50.504;3.666;2023-01-10T10:36:58;5.93;87.46
76345;DHT22;65160;50.504;3.666;2023-01-10T10:39:43;5.96;86.82
76345;DHT22;65160;50.504;3.666;2023-01-10T10:42:12;5.99;87.28
76345;DHT22;65160;50.504;3.666;2023-01-10T10:47:19;6.13;86.34
76345;DHT22;65160;50.504;3.666;2023-01-10T10:52:28;6.22;86.55
76345;DHT22;65160;50.504;3.666;2023-01-10T10:54:57;6.20;86.40
76345;DHT22;65160;50.504;3.666;2023-01-10T10:57:26;6.27;86.76
76345;DHT22;65160;50.504;3.666;2023-01-10T10:59:53;6.22;86.40
76345;DHT22;65160;50.504;3.666;2023-01-10T11:02:28;6.31;86.45
76345;DHT22;65160;50.504;3.666;2023-01-10T11:04:57;6.38;86.32
76345;DHT22;65160;50.504;3.666;2023-01-10T11:07:24;6.38;86.06
76345;DHT22;65160;50.504;3.666;2023-01-10T11:09:53;6.37;86.40
76345;DHT22;65160;50.504;3.666;2023-01-10T11:12:40;6.31;86.37
76345;DHT22;65160;50.504;3.666;2023-01-10T11:15:10;6.27;86.55
76345;DHT22;65160;50.504;3.666;2023-01-10T11:17:35;6.25;86.86
76345;DHT22;65160;50.504;3.666;2023-01-10T11:20:13;6.18;87.36
76345;DHT22;65160;50.504;3.666;2023-01-10T11:22:47;6.11;87.53
76345;DHT22;65160;50.504;3.666;2023-01-10T11:25:15;6.02;88.32
76345;DHT22;65160;50.504;3.666;2023-01-10T11:27:58;5.94;89.24
76345;DHT22;65160;50.504;3.666;2023-01-10T11:30:32;5.96;89.44
76345;DHT22;65160;50.504;3.666;2023-01-10T11:33:02;5.93;89.32
76345;DHT22;65160;50.504;3.666;2023-01-10T11:35:38;5.94;89.35
76345;DHT22;65160;50.504;3.666;2023-01-10T11:46:02;5.87;90.53
76345;DHT22;65160;50.504;3.666;2023-01-10T11:49:02;5.87;91.03
76345;DHT22;65160;50.504;3.666;2023-01-10T11:51:31;5.90;91.47
76345;DHT22;65160;50.504;3.666;2023-01-10T11:53:59;5.89;91.81
76345;DHT22;65160;50.504;3.666;2023-01-10T11:56:29;5.94;92.33
76345;DHT22;65160;50.504;3.666;2023-01-10T11:58:57;5.94;92.43
76345;DHT22;65160;50.504;3.666;2023-01-10T12:01:29;5.97;92.89
76345;DHT22;65160;50.504;3.666;2023-01-10T12:03:55;5.97;92.76
76345;DHT22;65160;50.504;3.666;2023-01-10T12:06:21;5.99;92.93
76345;DHT22;65160;50.504;3.666;2023-01-10T12:08:47;5.97;92.83
76345;DHT22;65160;50.504;3.666;2023-01-10T12:13:50;6.02;93.23
76345;DHT22;65160;50.504;3.666;2023-01-10T12:16:20;5.99;93.57
76345;DHT22;65160;50.504;3.666;2023-01-10T12:18:47;5.94;93.57
76345;DHT22;65160;50.504;3.666;2023-01-10T12:21:15;5.96;93.73
76345;DHT22;65160;50.504;3.666;2023-01-10T12:23:44;5.90;93.54
76345;DHT22;65160;50.504;3.666;2023-01-10T12:26:12;5.92;93.51
76345;DHT22;65160;50.504;3.666;2023-01-10T12:28:41;5.94;93.75
76345;DHT22;65160;50.504;3.666;2023-01-10T12:31:12;6.00;93.84
76345;DHT22;65160;50.504;3.666;2023-01-10T12:33:43;6.04;93.91
76345;DHT22;65160;50.504;3.666;2023-01-10T12:44:33;6.14;93.90
76345;DHT22;65160;50.504;3.666;2023-01-10T12:49:41;6.07;94.09
76345;DHT22;65160;50.504;3.666;2023-01-10T12:52:15;6.07;93.75
76345;DHT22;65160;50.504;3.666;2023-01-10T12:54:45;6.09;93.79
76345;DHT22;65160;50.504;3.666;2023-01-10T12:57:30;6.10;94.47
76345;DHT22;65160;50.504;3.666;2023-01-10T13:00:00;6.07;94.25
76345;DHT22;65160;50.504;3.666;2023-01-10T13:02:29;6.04;94.03
76345;DHT22;65160;50.504;3.666;2023-01-10T13:04:59;6.03;94.48
76345;DHT22;65160;50.504;3.666;2023-01-10T13:07:32;6.03;94.06
76345;DHT22;65160;50.504;3.666;2023-01-10T13:10:01;6.06;94.40
76345;DHT22;65160;50.504;3.666;2023-01-10T13:12:35;6.07;94.66
76345;DHT22;65160;50.504;3.666;2023-01-10T13:15:17;6.07;93.93
76345;DHT22;65160;50.504;3.666;2023-01-10T13:17:48;6.03;94.00
76345;DHT22;65160;50.504;3.666;2023-01-10T13:22:45;6.06;94.82
76345;DHT22;65160;50.504;3.666;2023-01-10T13:25:33;6.04;95.06
76345;DHT22;65160;50.504;3.666;2023-01-10T13:28:16;6.09;94.96
76345;DHT22;65160;50.504;3.666;2023-01-10T13:30:43;6.07;94.86
76345;DHT22;65160;50.504;3.666;2023-01-10T13:33:31;6.07;95.15
76345;DHT22;65160;50.504;3.666;2023-01-10T13:36:18;6.07;95.41
76345;DHT22;65160;50.504;3.666;2023-01-10T13:38:51;6.06;95.18
76345;DHT22;65160;50.504;3.666;2023-01-10T13:41:18;6.06;95.47
76345;DHT22;65160;50.504;3.666;2023-01-10T13:44:11;6.06;95.47
76345;DHT22;65160;50.504;3.666;2023-01-10T13:46:55;6.06;95.88
76345;DHT22;65160;50.504;3.666;2023-01-10T13:49:38;6.06;95.35
76345;DHT22;65160;50.504;3.666;2023-01-10T13:52:28;6.10;95.38
76345;DHT22;65160;50.504;3.666;2023-01-10T13:54:56;6.07;95.43
76345;DHT22;65160;50.504;3.666;2023-01-10T13:57:50;6.10;95.76
76345;DHT22;65160;50.504;3.666;2023-01-10T14:06:30;6.16;95.40
76345;DHT22;65160;50.504;3.666;2023-01-10T14:08:57;6.14;95.07
76345;DHT22;65160;50.504;3.666;2023-01-10T14:11:25;6.18;95.48
76345;DHT22;65160;50.504;3.666;2023-01-10T14:13:56;6.16;95.32
76345;DHT22;65160;50.504;3.666;2023-01-10T14:16:39;6.21;95.64
76345;DHT22;65160;50.504;3.666;2023-01-10T14:21:51;6.18;96.18
76345;DHT22;65160;50.504;3.666;2023-01-10T14:24:27;6.18;96.30
76345;DHT22;65160;50.504;3.666;2023-01-10T14:26:54;6.18;96.28
76345;DHT22;65160;50.504;3.666;2023-01-10T14:29:22;6.17;96.62
76345;DHT22;65160;50.504;3.666;2023-01-10T14:31:49;6.20;96.70
76345;DHT22;65160;50.504;3.666;2023-01-10T14:34:25;6.20;96.65
76345;DHT22;65160;50.504;3.666;2023-01-10T14:37:07;6.20;96.75
76345;DHT22;65160;50.504;3.666;2023-01-10T14:39:34;6.21;96.79
76345;DHT22;65160;50.504;3.666;2023-01-10T14:42:06;6.25;96.91
76345;DHT22;65160;50.504;3.666;2023-01-10T14:44:41;6.25;96.83
76345;DHT22;65160;50.504;3.666;2023-01-10T14:47:30;6.27;96.80
76345;DHT22;65160;50.504;3.666;2023-01-10T14:49:57;6.27;96.91
76345;DHT22;65160;50.504;3.666;2023-01-10T14:52:27;6.27;96.74
76345;DHT22;65160;50.504;3.666;2023-01-10T14:55:11;6.30;96.84
76345;DHT22;65160;50.504;3.666;2023-01-10T14:57:37;6.28;96.78
76345;DHT22;65160;50.504;3.666;2023-01-10T15:00:11;6.31;96.89
76345;DHT22;65160;50.504;3.666;2023-01-10T15:02:42;6.31;96.65
76345;DHT22;65160;50.504;3.666;2023-01-10T15:05:18;6.32;96.79
76345;DHT22;65160;50.504;3.666;2023-01-10T15:07:44;6.32;96.68
76345;DHT22;65160;50.504;3.666;2023-01-10T15:10:23;6.38;96.37
76345;DHT22;65160;50.504;3.666;2023-01-10T15:12:55;6.41;96.17
76345;DHT22;65160;50.504;3.666;2023-01-10T15:15:32;6.45;96.00
76345;DHT22;65160;50.504;3.666;2023-01-10T15:17:59;6.46;96.03
76345;DHT22;65160;50.504;3.666;2023-01-10T15:20:25;6.49;96.00
76345;DHT22;65160;50.504;3.666;2023-01-10T15:22:59;6.45;96.05
76345;DHT22;65160;50.504;3.666;2023-01-10T15:25:33;6.49;96.17
76345;DHT22;65160;50.504;3.666;2023-01-10T15:28:03;6.51;95.98
76345;DHT22;65160;50.504;3.666;2023-01-10T15:30:34;6.52;96.02
76345;DHT22;65160;50.504;3.666;2023-01-10T15:33:03;6.55;95.78
76345;DHT22;65160;50.504;3.666;2023-01-10T15:35:31;6.59;95.69
76345;DHT22;65160;50.504;3.666;2023-01-10T15:38:07;6.64;95.69
76345;DHT22;65160;50.504;3.666;2023-01-10T15:40:37;6.65;95.82
76345;DHT22;65160;50.504;3.666;2023-01-10T15:45:35;6.78;95.49
76345;DHT22;65160;50.504;3.666;2023-01-10T15:48:03;6.85;95.20
76345;DHT22;65160;50.504;3.666;2023-01-10T15:50:36;6.86;94.99
76345;DHT22;65160;50.504;3.666;2023-01-10T15:53:10;6.86;95.22
76345;DHT22;65160;50.504;3.666;2023-01-10T15:55:47;6.92;95.00
76345;DHT22;65160;50.504;3.666;2023-01-10T16:00:50;6.97;95.28
76345;DHT22;65160;50.504;3.666;2023-01-10T16:05:58;6.99;95.10
76345;DHT22;65160;50.504;3.666;2023-01-10T16:08:27;7.03;95.21
76345;DHT22;65160;50.504;3.666;2023-01-10T16:10:57;7.06;95.22
76345;DHT22;65160;50.504;3.666;2023-01-10T16:13:23;7.10;94.95
76345;DHT22;65160;50.504;3.666;2023-01-10T16:16:02;7.10;95.24
76345;DHT22;65160;50.504;3.666;2023-01-10T16:18:29;7.14;94.92
76345;DHT22;65160;50.504;3.666;2023-01-10T16:20:57;7.16;94.96
76345;DHT22;65160;50.504;3.666;2023-01-10T16:23:33;7.20;94.92
76345;DHT22;65160;50.504;3.666;2023-01-10T16:26:05;7.20;94.99
76345;DHT22;65160;50.504;3.666;2023-01-10T16:28:31;7.18;95.05
76345;DHT22;65160;50.504;3.666;2023-01-10T16:31:01;7.24;94.85
76345;DHT22;65160;50.504;3.666;2023-01-10T16:33:27;7.27;95.17
76345;DHT22;65160;50.504;3.666;2023-01-10T16:35:58;7.34;94.89
76345;DHT22;65160;50.504;3.666;2023-01-10T16:38:25;7.41;94.75
76345;DHT22;65160;50.504;3.666;2023-01-10T16:40:59;7.35;94.85
76345;DHT22;65160;50.504;3.666;2023-01-10T16:43:25;7.44;94.70
76345;DHT22;65160;50.504;3.666;2023-01-10T16:45:55;7.48;94.43
76345;DHT22;65160;50.504;3.666;2023-01-10T16:48:25;7.50;94.41
76345;DHT22;65160;50.504;3.666;2023-01-10T16:50:50;7.50;94.42
76345;DHT22;65160;50.504;3.666;2023-01-10T16:53:18;7.50;94.45
76345;DHT22;65160;50.504;3.666;2023-01-10T16:55:45;7.50;94.49
76345;DHT22;65160;50.504;3.666;2023-01-10T16:58:12;7.48;94.54
76345;DHT22;65160;50.504;3.666;2023-01-10T17:00:40;7.56;94.34
76345;DHT22;65160;50.504;3.666;2023-01-10T17:03:09;7.54;94.41
76345;DHT22;65160;50.504;3.666;2023-01-10T17:05:36;7.56;94.45
76345;DHT22;65160;50.504;3.666;2023-01-10T17:08:03;7.55;94.72
76345;DHT22;65160;50.504;3.666;2023-01-10T17:10:29;7.61;94.58
76345;DHT22;65160;50.504;3.666;2023-01-10T17:12:56;7.59;94.75
76345;DHT22;65160;50.504;3.666;2023-01-10T17:15:22;7.61;94.95
76345;DHT22;65160;50.504;3.666;2023-01-10T17:17:47;7.65;94.84
76345;DHT22;65160;50.504;3.666;2023-01-10T17:20:14;7.65;94.95
76345;DHT22;65160;50.504;3.666;2023-01-10T17:22:41;7.69;95.00
76345;DHT22;65160;50.504;3.666;2023-01-10T17:25:12;7.75;94.88
76345;DHT22;65160;50.504;3.666;2023-01-10T17:27:38;7.80;94.82
76345;DHT22;65160;50.504;3.666;2023-01-10T17:30:04;7.83;94.86
76345;DHT22;65160;50.504;3.666;2023-01-10T17:32:30;7.89;94.76
76345;DHT22;65160;50.504;3.666;2023-01-10T17:34:55;7.91;94.74
76345;DHT22;65160;50.504;3.666;2023-01-10T17:37:21;7.94;94.70
76345;DHT22;65160;50.504;3.666;2023-01-10T17:39:47;8.06;94.45
76345;DHT22;65160;50.504;3.666;2023-01-10T17:42:12;8.07;94.42
76345;DHT22;65160;50.504;3.666;2023-01-10T17:44:38;8.04;94.51
76345;DHT22;65160;50.504;3.666;2023-01-10T17:47:03;8.09;94.61
76345;DHT22;65160;50.504;3.666;2023-01-10T17:49:29;8.09;94.88
76345;DHT22;65160;50.504;3.666;2023-01-10T17:51:54;8.18;94.85